Time;durP1;ratioP1;P1;durP2;ratioP2;P2;SDS_P1;SDS_P2;PMS_P1;PMS_P2;Temp;Humidity;BMP_temperature;BMP_pressure;BME280_temperature;BME280_humidity;BME280_pressure;Samples;Min_cycle;Max_cycle;Signal;HPM_P1;HPM_P2
2022/09/03 00:02:27;;;;;;;5.30;2.60;;;15.50;99.90;;;;;;4685317;30;20050;-85
2022/09/03 00:05:40;;;;;;;5.10;2.50;;;15.50;99.90;;;;;;4709965;30;20629;-85
2022/09/03 00:09:00;;;;;;;5.03;2.60;;;15.50;99.90;;;;;;4725921;30;20427;-86
2022/09/03 00:11:57;;;;;;;6.63;2.83;;;15.60;99.90;;;;;;4711126;30;20057;-87
2022/09/03 00:14:48;;;;;;;6.03;2.33;;;15.50;99.90;;;;;;4744625;30;20052;-85
2022/09/03 00:17:39;;;;;;;6.85;2.67;;;15.60;99.90;;;;;;4738837;30;20107;-85
2022/09/03 00:20:58;;;;;;;4.57;2.50;;;15.50;99.90;;;;;;4700960;30;20056;-85
2022/09/03 00:23:53;;;;;;;6.45;3.35;;;15.50;99.90;;;;;;4710108;30;20057;-86
2022/09/03 00:26:34;;;;;;;6.93;2.60;;;15.50;99.90;;;;;;4719017;30;20061;-86
2022/09/03 00:29:25;;;;;;;6.55;2.28;;;15.50;99.90;;;;;;4671316;30;20141;-85
2022/09/03 00:32:17;;;;;;;4.78;2.55;;;15.50;99.90;;;;;;4686511;30;20046;-86
2022/09/03 00:35:02;;;;;;;4.28;2.40;;;15.30;99.90;;;;;;4692940;30;20054;-86
2022/09/03 00:38:02;;;;;;;4.93;2.70;;;15.40;99.90;;;;;;4671949;30;20050;-86
2022/09/03 00:41:07;;;;;;;4.82;2.55;;;15.40;99.90;;;;;;4698274;30;20058;-85
2022/09/03 00:44:20;;;;;;;6.03;2.75;;;15.30;99.90;;;;;;4720482;30;20057;-85
2022/09/03 00:47:21;;;;;;;6.05;2.63;;;15.20;99.90;;;;;;4704840;30;20093;-86
2022/09/03 00:50:23;;;;;;;5.07;2.95;;;15.30;99.90;;;;;;4733765;30;20064;-86
2022/09/03 00:53:22;;;;;;;4.93;2.83;;;15.40;99.90;;;;;;4714606;30;20050;-86
2022/09/03 00:56:25;;;;;;;5.82;2.63;;;15.30;99.90;;;;;;4710878;30;20097;-86
2022/09/03 00:59:40;;;;;;;5.70;2.50;;;15.20;99.90;;;;;;4688213;30;20045;-86
2022/09/03 01:02:55;;;;;;;6.05;2.75;;;15.30;99.90;;;;;;4715264;30;20057;-86
2022/09/03 01:06:14;;;;;;;4.53;2.63;;;15.30;99.90;;;;;;4691383;30;20139;-86
2022/09/03 01:09:41;;;;;;;5.88;2.50;;;15.20;99.90;;;;;;4692313;30;20046;-86
2022/09/03 01:13:09;;;;;;;5.30;2.75;;;15.70;99.90;;;;;;4682746;30;20056;-86
2022/09/03 01:16:15;;;;;;;7.00;2.85;;;15.20;99.90;;;;;;4690817;30;20054;-85
2022/09/03 01:19:51;;;;;;;8.43;2.80;;;15.20;99.90;;;;;;4687856;30;20054;-86
2022/09/03 01:22:48;;;;;;;5.25;2.45;;;15.10;99.90;;;;;;4696616;30;20050;-86
2022/09/03 01:26:37;;;;;;;5.82;3.10;;;15.10;99.90;;;;;;4702012;30;20057;-86
2022/09/03 01:30:16;;;;;;;4.70;2.58;;;15.00;99.90;;;;;;4666063;30;20042;-86
2022/09/03 01:33:05;;;;;;;7.05;2.35;;;15.00;99.90;;;;;;4664842;30;20075;-87
2022/09/03 01:36:00;;;;;;;6.32;2.70;;;15.50;99.90;;;;;;4684486;30;20101;-86
2022/09/03 01:39:01;;;;;;;4.07;2.58;;;15.10;99.90;;;;;;4701572;30;20072;-86
2022/09/03 01:42:16;;;;;;;6.90;3.10;;;14.70;99.90;;;;;;4679119;30;20058;-86
2022/09/03 01:45:50;;;;;;;4.47;2.58;;;14.40;99.90;;;;;;4696089;30;20105;-86
2022/09/03 01:49:31;;;;;;;5.03;2.53;;;15.00;99.90;;;;;;4721886;30;20060;-87
2022/09/03 01:52:59;;;;;;;4.32;2.50;;;14.90;99.90;;;;;;4684292;30;20209;-85
2022/09/03 01:56:32;;;;;;;5.25;2.35;;;14.90;99.90;;;;;;4691448;30;20054;-86
2022/09/03 02:00:05;;;;;;;6.18;2.45;;;15.00;99.90;;;;;;4705278;30;20065;-86
2022/09/03 02:02:46;;;;;;;4.55;2.47;;;14.80;99.90;;;;;;4702396;30;20054;-86
2022/09/03 02:05:30;;;;;;;4.70;2.40;;;14.90;99.90;;;;;;4688115;30;20050;-87
2022/09/03 02:08:40;;;;;;;4.15;2.42;;;14.90;99.90;;;;;;4670998;30;20122;-86
2022/09/03 02:11:28;;;;;;;6.45;2.83;;;14.90;99.90;;;;;;4679813;30;20074;-86
2022/09/03 02:14:18;;;;;;;6.05;2.67;;;14.80;99.90;;;;;;4660816;30;20089;-86
2022/09/03 02:18:17;;;;;;;4.80;2.58;;;14.80;99.90;;;;;;4698124;30;20076;-85
2022/09/03 02:21:23;;;;;;;4.95;2.42;;;14.80;99.90;;;;;;4669708;30;20074;-86
2022/09/03 02:24:15;;;;;;;5.03;2.72;;;14.80;99.90;;;;;;4684226;30;20055;-86
2022/09/03 02:27:32;;;;;;;7.70;3.08;;;14.70;99.90;;;;;;4628293;31;20068;-86
2022/09/03 02:30:25;;;;;;;6.57;2.72;;;14.70;99.90;;;;;;4649573;30;20063;-86
2022/09/03 02:34:16;;;;;;;4.65;2.60;;;14.60;99.90;;;;;;4639536;31;20055;-86
2022/09/03 02:37:27;;;;;;;5.82;2.55;;;14.60;99.90;;;;;;4634768;31;20063;-86
2022/09/03 02:40:35;;;;;;;6.55;2.95;;;14.60;99.90;;;;;;4620922;30;20214;-86
2022/09/03 02:43:57;;;;;;;6.22;2.90;;;14.50;99.90;;;;;;4645077;31;20079;-86
2022/09/03 02:47:46;;;;;;;7.97;3.15;;;14.60;99.90;;;;;;4651615;30;20146;-85
2022/09/03 02:51:02;;;;;;;6.25;3.00;;;14.60;99.90;;;;;;4592405;31;20053;-87
2022/09/03 02:54:20;;;;;;;5.60;2.53;;;14.60;99.90;;;;;;4562928;31;20097;-86
2022/09/03 02:57:35;;;;;;;6.55;3.03;;;14.50;99.90;;;;;;4555494;31;20053;-87
2022/09/03 03:00:16;;;;;;;5.53;2.50;;;14.60;99.90;;;;;;4522083;31;20060;-87
2022/09/03 03:03:29;;;;;;;5.95;2.53;;;14.50;99.90;;;;;;4484086;31;20066;-86
2022/09/03 03:07:10;;;;;;;3.75;2.33;;;14.50;99.90;;;;;;4442012;32;20069;-87
2022/09/03 03:10:27;;;;;;;5.65;2.17;;;14.40;99.90;;;;;;4440714;32;20088;-87
2022/09/03 03:13:56;;;;;;;4.97;2.40;;;14.40;99.90;;;;;;4481431;32;20086;-86
2022/09/03 03:17:37;;;;;;;3.95;2.42;;;14.50;99.90;;;;;;4485699;32;20047;-87
2022/09/03 03:20:53;;;;;;;4.97;2.42;;;14.40;99.90;;;;;;4502589;31;20106;-86
2022/09/03 03:23:45;;;;;;;7.78;2.42;;;14.80;99.90;;;;;;4542567;31;20054;-86
2022/09/03 03:27:26;;;;;;;4.13;1.93;;;14.30;99.90;;;;;;4519214;31;20122;-86
2022/09/03 03:31:16;;;;;;;8.25;2.42;;;14.30;99.90;;;;;;4501535;31;20036;-87
2022/09/03 03:34:45;;;;;;;6.15;3.03;;;14.30;99.90;;;;;;4489694;32;20077;-87
2022/09/03 03:38:51;;;;;;;5.80;2.17;;;14.20;99.90;;;;;;4527469;31;20074;-86
2022/09/03 03:41:53;;;;;;;3.53;1.83;;;14.20;99.90;;;;;;4449382;32;20051;-86
2022/09/03 03:44:55;;;;;;;4.00;2.15;;;14.20;99.90;;;;;;4516674;31;20042;-86
2022/09/03 03:53:09;;;;;;;;;;;14.20;99.90;;;;;;4537955;31;20054;-85
2022/09/03 03:57:18;;;;;;;4.25;2.53;;;14.20;99.90;;;;;;4517867;31;19935;-87
2022/09/03 04:04:24;;;;;;;3.42;2.33;;;15.00;99.90;;;;;;4895301;29;20049;-86
2022/09/03 04:06:54;;;;;;;;;;;14.10;99.90;;;;;;4833020;29;20065;-87
2022/09/03 04:09:22;;;;;;;4.90;2.83;;;14.10;99.90;;;;;;4808288;29;19936;-86
2022/09/03 04:11:51;;;;;;;4.30;2.67;;;13.90;99.90;;;;;;4801727;29;20114;-86
2022/09/03 04:15:22;;;;;;;3.72;2.20;;;14.00;99.90;;;;;;4887215;29;20056;-86
2022/09/03 04:19:16;;;;;;;8.60;3.20;;;14.00;99.90;;;;;;4767294;30;20036;-87
2022/09/03 04:22:39;;;;;;;6.80;2.90;;;13.90;99.90;;;;;;4709556;30;20068;-87
2022/09/03 04:26:33;;;;;;;4.70;2.25;;;14.00;99.90;;;;;;4653187;31;20127;-87
2022/09/03 04:30:26;;;;;;;6.65;2.67;;;13.90;99.90;;;;;;4641328;31;20066;-86
2022/09/03 04:33:50;;;;;;;6.38;2.75;;;14.00;99.90;;;;;;4595744;31;20048;-87
2022/09/03 04:42:08;;;;;;;6.05;2.70;;;14.00;99.90;;;;;;4520997;31;20150;-86
2022/09/03 04:51:26;;;;;;;6.47;2.88;;;13.30;99.90;;;;;;4505596;31;20090;-88
2022/09/03 04:58:58;;;;;;;5.88;3.10;;;14.00;99.90;;;;;;4900160;29;20069;-87
2022/09/03 05:03:23;;;;;;;4.90;2.53;;;13.90;99.90;;;;;;4750036;30;20041;-87
2022/09/03 05:10:52;;;;;;;9.07;3.42;;;14.00;99.90;;;;;;4685809;30;20046;-87
2022/09/03 05:14:18;;;;;;;9.07;3.03;;;14.00;99.90;;;;;;4684094;30;20030;-87
2022/09/03 05:18:01;;;;;;;5.05;2.97;;;14.10;99.90;;;;;;4660258;30;20057;-87
2022/09/03 05:21:22;;;;;;;5.27;3.37;;;14.10;99.90;;;;;;4620842;31;20062;-86
2022/09/03 05:24:56;;;;;;;6.72;3.53;;;14.30;99.90;;;;;;4591904;31;20552;-86
2022/09/03 05:31:43;;;;;;;8.70;4.32;;;14.30;99.90;;;;;;4568325;31;20046;-86
2022/09/03 05:34:42;;;;;;;8.00;4.20;;;14.40;99.90;;;;;;4557208;31;20050;-87
2022/09/03 05:37:30;;;;;;;8.85;4.53;;;14.50;99.90;;;;;;4542303;31;20087;-86
2022/09/03 05:40:15;;;;;;;7.22;4.10;;;14.60;99.90;;;;;;4610363;31;20075;-86
2022/09/03 05:43:22;;;;;;;7.47;3.97;;;14.60;99.90;;;;;;4603808;31;20062;-87
2022/09/03 05:46:10;;;;;;;8.80;4.47;;;14.90;99.90;;;;;;4612731;31;20057;-86
2022/09/03 05:49:02;;;;;;;8.75;5.07;;;14.80;99.90;;;;;;4600670;31;20076;-86
2022/09/03 05:52:00;;;;;;;8.07;5.15;;;14.90;99.90;;;;;;4585296;31;20085;-86
2022/09/03 05:54:39;;;;;;;9.93;5.03;;;14.90;99.90;;;;;;4620212;31;20066;-86
2022/09/03 05:57:29;;;;;;;8.88;4.65;;;14.60;99.90;;;;;;4564512;31;20056;-86
2022/09/03 06:00:46;;;;;;;9.10;5.88;;;15.20;99.90;;;;;;4645811;31;20064;-86
2022/09/03 06:04:14;;;;;;;10.50;5.32;;;15.20;99.90;;;;;;4580613;31;20497;-86
2022/09/03 06:07:07;;;;;;;8.70;5.60;;;15.80;99.90;;;;;;4575044;31;20044;-86
2022/09/03 06:10:00;;;;;;;11.60;6.07;;;15.60;99.90;;;;;;4576235;31;20045;-85
2022/09/03 06:12:50;;;;;;;9.98;5.60;;;15.70;99.90;;;;;;4546231;31;20146;-85
2022/09/03 06:16:05;;;;;;;12.20;6.07;;;15.70;99.90;;;;;;4576476;31;20081;-86
2022/09/03 06:19:19;;;;;;;10.10;5.60;;;16.00;99.90;;;;;;4601843;31;20063;-86
2022/09/03 06:22:11;;;;;;;9.23;5.57;;;16.40;99.90;;;;;;4610426;31;20049;-86
2022/09/03 06:25:18;;;;;;;12.27;6.40;;;16.40;99.90;;;;;;4610262;31;20052;-86
2022/09/03 06:28:27;;;;;;;10.05;5.63;;;16.60;99.90;;;;;;4627075;30;20047;-86
2022/09/03 06:32:00;;;;;;;8.82;5.10;;;16.70;99.90;;;;;;4665582;30;20076;-86
2022/09/03 06:35:51;;;;;;;10.85;5.38;;;16.80;99.90;;;;;;4632241;31;20036;-86
2022/09/03 06:38:40;;;;;;;9.27;5.13;;;17.10;99.90;;;;;;4640860;30;20071;-86
2022/09/03 06:41:50;;;;;;;7.05;4.70;;;17.30;99.90;;;;;;4615738;31;20040;-86
2022/09/03 06:44:56;;;;;;;6.82;3.95;;;17.40;99.90;;;;;;4621600;30;20089;-86
2022/09/03 06:48:13;;;;;;;8.35;4.55;;;17.50;99.90;;;;;;4660545;30;20039;-86
2022/09/03 07:07:33;;;;;;;7.13;3.80;;;18.20;99.90;;;;;;4862769;29;20041;-84
2022/09/03 07:15:53;;;;;;;8.25;4.18;;;18.50;99.90;;;;;;4908736;29;20564;-88
2022/09/03 07:23:44;;;;;;;8.15;3.83;;;18.80;99.20;;;;;;4792400;29;20381;-89
2022/09/03 07:26:18;;;;;;;6.85;3.63;;;18.90;97.60;;;;;;4803525;29;20078;-88
2022/09/03 07:28:47;;;;;;;8.50;3.53;;;19.00;97.10;;;;;;4783918;29;20096;-89
2022/09/03 07:34:39;;;;;;;9.07;4.07;;;19.10;96.60;;;;;;4802848;29;20169;-88
2022/09/03 07:37:06;;;;;;;7.88;4.25;;;19.20;96.30;;;;;;4814919;29;20103;-91
2022/09/03 07:39:34;;;;;;;7.68;3.70;;;19.30;96.50;;;;;;4799293;29;20043;-89
2022/09/03 07:42:01;;;;;;;7.13;3.92;;;19.40;95.50;;;;;;4800019;29;20897;-89
2022/09/03 07:44:29;;;;;;;6.60;3.90;;;19.40;95.80;;;;;;4799225;29;20078;-89
2022/09/03 07:46:56;;;;;;;7.13;3.85;;;19.30;94.10;;;;;;4802306;29;20050;-89
2022/09/03 07:49:24;;;;;;;6.82;3.42;;;19.50;94.70;;;;;;4815338;29;20048;-91
2022/09/03 07:51:53;;;;;;;5.55;2.47;;;19.50;94.00;;;;;;4838831;29;20050;-88
2022/09/03 07:54:22;;;;;;;6.30;2.70;;;19.60;92.80;;;;;;4871123;29;20186;-89
2022/09/03 07:56:49;;;;;;;5.68;2.90;;;19.70;90.90;;;;;;4876665;29;20562;-90
2022/09/03 07:59:16;;;;;;;6.47;3.17;;;19.80;91.80;;;;;;4875450;29;20055;-90
2022/09/03 08:01:44;;;;;;;5.70;3.05;;;20.00;93.00;;;;;;4876809;29;20163;-90
2022/09/03 08:04:11;;;;;;;6.93;3.13;;;20.10;91.30;;;;;;4878366;29;20044;-89
2022/09/03 08:06:39;;;;;;;5.03;2.80;;;20.20;91.80;;;;;;4874344;29;20100;-91
2022/09/03 08:09:12;;;;;;;5.82;2.65;;;20.20;91.50;;;;;;4876997;29;20060;-89
2022/09/03 08:11:42;;;;;;;7.70;2.50;;;20.30;90.50;;;;;;4876568;29;20100;-91
2022/09/03 08:14:11;;;;;;;4.78;2.70;;;20.30;90.40;;;;;;4890667;29;20076;-90
2022/09/03 08:16:41;;;;;;;5.35;2.72;;;20.40;89.90;;;;;;4873787;29;20048;-92
2022/09/03 08:19:10;;;;;;;4.18;2.20;;;20.50;89.70;;;;;;4877312;29;20412;-88
2022/09/03 08:21:40;;;;;;;4.90;2.55;;;20.50;87.20;;;;;;4889523;29;20150;-89
2022/09/03 08:24:09;;;;;;;6.15;2.28;;;20.20;85.80;;;;;;4892395;29;20048;-89
2022/09/03 08:26:40;;;;;;;7.00;3.00;;;20.30;85.20;;;;;;4876545;29;20044;-89
2022/09/03 08:29:08;;;;;;;8.20;3.10;;;20.40;86.10;;;;;;4889100;29;20149;-90
2022/09/03 08:31:36;;;;;;;4.38;2.60;;;20.50;84.40;;;;;;4867009;29;20067;-92
2022/09/03 08:34:05;;;;;;;5.53;2.60;;;20.50;86.30;;;;;;4865175;29;20108;-91
2022/09/03 08:36:35;;;;;;;4.40;3.00;;;20.70;86.40;;;;;;4869084;29;20115;-88
2022/09/03 08:39:08;;;;;;;4.57;2.50;;;20.70;85.40;;;;;;4868168;29;20055;-89
2022/09/03 08:41:42;;;;;;;4.28;2.30;;;20.60;86.60;;;;;;4878742;29;20075;-90
2022/09/03 08:44:30;;;;;;;6.15;2.72;;;20.70;87.30;;;;;;4872727;29;20048;-95
2022/09/03 08:47:04;;;;;;;5.47;2.53;;;20.80;84.50;;;;;;4885638;29;20076;-90
2022/09/03 08:49:54;;;;;;;4.10;2.70;;;20.90;84.60;;;;;;4889020;29;20048;-91
2022/09/03 08:52:25;;;;;;;5.25;3.00;;;20.90;84.10;;;;;;4871065;29;20062;-89
2022/09/03 08:55:09;;;;;;;4.32;2.55;;;20.80;83.20;;;;;;4883071;29;20516;-90
2022/09/03 08:57:43;;;;;;;3.08;2.20;;;20.90;81.80;;;;;;4875016;29;20056;-89
2022/09/03 09:00:12;;;;;;;5.07;2.53;;;20.90;82.00;;;;;;4894469;29;20048;-91
2022/09/03 09:03:01;;;;;;;3.80;2.25;;;20.90;82.80;;;;;;4879204;29;20108;-92
2022/09/03 09:05:59;;;;;;;7.22;2.45;;;21.00;81.50;;;;;;4892417;29;20057;-90
2022/09/03 09:08:41;;;;;;;5.45;2.15;;;21.00;81.50;;;;;;4880981;29;20131;-92
2022/09/03 09:11:27;;;;;;;5.07;2.47;;;21.00;83.60;;;;;;4894074;29;20063;-88
2022/09/03 09:14:11;;;;;;;6.38;2.85;;;21.20;84.00;;;;;;4872356;29;20135;-88
2022/09/03 09:17:14;;;;;;;4.35;1.75;;;21.00;81.30;;;;;;4898987;29;20056;-87
2022/09/03 09:20:09;;;;;;;4.15;2.40;;;21.00;83.30;;;;;;4854707;29;20159;-87
2022/09/03 09:22:46;;;;;;;3.42;2.30;;;21.10;81.30;;;;;;4873746;29;20057;-88
2022/09/03 09:25:20;;;;;;;6.63;2.80;;;20.90;79.80;;;;;;4868325;29;20067;-89
2022/09/03 09:27:59;;;;;;;4.80;2.22;;;21.00;83.40;;;;;;4896478;29;20051;-90
2022/09/03 09:30:29;;;;;;;5.55;2.40;;;21.10;83.40;;;;;;4897448;29;20104;-88
2022/09/03 09:32:56;;;;;;;4.07;2.30;;;21.30;80.80;;;;;;4897265;29;20466;-92
2022/09/03 09:35:23;;;;;;;5.25;2.15;;;21.20;81.20;;;;;;4894573;29;20101;-90
2022/09/03 09:37:53;;;;;;;5.55;2.38;;;21.30;82.50;;;;;;4894490;29;20152;-88
2022/09/03 09:40:31;;;;;;;5.32;2.30;;;21.30;82.00;;;;;;4882128;29;20048;-89
2022/09/03 09:43:09;;;;;;;3.72;2.05;;;21.20;81.60;;;;;;4885068;29;20036;-89
2022/09/03 09:45:41;;;;;;;5.88;2.40;;;21.40;82.60;;;;;;4895516;29;20349;-88
2022/09/03 09:48:14;;;;;;;7.13;2.30;;;21.50;83.10;;;;;;4878008;29;20036;-89
2022/09/03 09:50:42;;;;;;;5.72;2.90;;;21.50;83.40;;;;;;4875269;29;20062;-88
2022/09/03 09:53:13;;;;;;;2.88;1.92;;;21.60;81.50;;;;;;4876827;29;20048;-91
2022/09/03 09:55:49;;;;;;;4.65;2.20;;;21.70;81.50;;;;;;4885229;29;20147;-93
2022/09/03 09:58:22;;;;;;;4.78;2.28;;;21.70;81.50;;;;;;4897723;29;20059;-87
2022/09/03 10:01:01;;;;;;;4.30;1.95;;;21.80;80.80;;;;;;4888484;29;20048;-89
2022/09/03 10:03:36;;;;;;;4.57;2.67;;;21.80;79.70;;;;;;4889739;29;20048;-87
2022/09/03 10:09:14;;;;;;;10.63;2.58;;;21.70;81.00;;;;;;4892214;29;20099;-89
2022/09/03 10:11:50;;;;;;;4.13;2.05;;;21.70;79.00;;;;;;4872959;29;20059;-87
2022/09/03 10:14:25;;;;;;;6.05;1.70;;;21.60;76.60;;;;;;4875971;29;20143;-90
2022/09/03 10:17:03;;;;;;;4.05;2.00;;;21.70;77.60;;;;;;4884561;29;20100;-90
2022/09/03 10:20:26;;;;;;;2.70;1.65;;;21.70;76.70;;;;;;4878345;29;20074;-87
2022/09/03 10:22:49;;;;;;;4.60;1.80;;;21.80;77.50;;;;;;4884623;29;20044;-90
2022/09/03 10:25:42;;;;;;;8.20;1.90;;;21.90;77.30;;;;;;4891555;29;20143;-88
2022/09/03 10:28:10;;;;;;;6.40;1.77;;;22.00;77.60;;;;;;4875073;29;20056;-87
2022/09/03 10:31:06;;;;;;;4.47;2.00;;;22.00;75.70;;;;;;4887511;29;20055;-89
2022/09/03 10:33:41;;;;;;;4.53;1.70;;;22.00;74.70;;;;;;4888582;29;20050;-89
2022/09/03 10:36:20;;;;;;;2.15;1.48;;;22.10;77.80;;;;;;4874563;29;20135;-87
2022/09/03 10:39:00;;;;;;;2.83;1.27;;;22.10;75.30;;;;;;4890030;29;20051;-89
2022/09/03 10:41:36;;;;;;;3.60;1.15;;;22.10;74.60;;;;;;4888079;29;20529;-87
2022/09/03 10:44:29;;;;;;;2.70;1.02;;;22.00;74.20;;;;;;4889675;29;20059;-89
2022/09/03 10:47:36;;;;;;;2.05;1.27;;;22.10;75.00;;;;;;4881302;29;20135;-90
2022/09/03 10:50:14;;;;;;;4.28;1.15;;;22.10;73.40;;;;;;4873215;29;20131;-89
2022/09/03 10:52:54;;;;;;;3.70;1.67;;;22.00;71.60;;;;;;4882282;29;20056;-91
2022/09/03 10:55:38;;;;;;;2.50;1.45;;;22.20;72.80;;;;;;4879682;29;20045;-88
2022/09/03 10:58:30;;;;;;;3.97;1.30;;;22.10;71.50;;;;;;4896976;29;20052;-87
2022/09/03 11:01:22;;;;;;;4.07;1.05;;;22.20;69.20;;;;;;4886184;29;20056;-90
2022/09/03 11:04:13;;;;;;;2.58;0.90;;;22.10;71.90;;;;;;4874993;29;20064;-87
2022/09/03 11:07:05;;;;;;;2.92;1.10;;;21.80;70.10;;;;;;4876988;29;20048;-87
2022/09/03 11:09:49;;;;;;;4.47;1.05;;;21.60;71.00;;;;;;4867979;29;21806;-89
2022/09/03 11:12:27;;;;;;;5.25;1.20;;;21.70;69.70;;;;;;4882831;29;20040;-87
2022/09/03 11:15:10;;;;;;;3.05;1.35;;;21.90;70.20;;;;;;4884576;29;20056;-87
2022/09/03 11:17:49;;;;;;;2.28;1.30;;;22.00;70.10;;;;;;4877275;29;20048;-90
2022/09/03 11:20:24;;;;;;;5.22;1.60;;;22.10;71.80;;;;;;4891447;29;20053;-86
2022/09/03 11:23:00;;;;;;;4.72;1.35;;;22.30;73.90;;;;;;4878485;29;20051;-88
2022/09/03 11:25:55;;;;;;;3.45;1.35;;;22.30;73.10;;;;;;4874756;29;20238;-89
2022/09/03 11:28:44;;;;;;;2.25;1.08;;;22.40;72.90;;;;;;4880562;29;20607;-88
2022/09/03 11:31:14;;;;;;;2.72;1.27;;;22.40;73.20;;;;;;4880312;29;20047;-90
2022/09/03 11:33:49;;;;;;;2.90;1.40;;;22.50;71.30;;;;;;4881162;29;20063;-87
2022/09/03 11:36:37;;;;;;;3.70;1.02;;;22.50;69.70;;;;;;4877951;29;20092;-89
2022/09/03 11:39:32;;;;;;;6.70;1.23;;;22.30;68.20;;;;;;4898173;29;20048;-88
2022/09/03 11:42:11;;;;;;;2.97;1.08;;;22.30;65.40;;;;;;4892807;29;20051;-86
2022/09/03 11:44:41;;;;;;;3.28;1.23;;;22.20;68.10;;;;;;4888747;29;20044;-88
2022/09/03 11:47:22;;;;;;;2.60;1.35;;;22.50;70.40;;;;;;4870685;29;20505;-87
2022/09/03 11:49:52;;;;;;;4.57;1.55;;;22.60;69.50;;;;;;4890724;29;20557;-86
2022/09/03 11:52:28;;;;;;;2.28;0.82;;;22.50;68.00;;;;;;4891475;29;20052;-87
2022/09/03 11:54:55;;;;;;;2.10;0.60;;;22.50;67.90;;;;;;4879899;29;20052;-87
2022/09/03 11:57:28;;;;;;;2.88;1.10;;;22.40;66.40;;;;;;4885685;29;20560;-89
2022/09/03 12:00:16;;;;;;;2.33;1.13;;;22.50;66.90;;;;;;4877652;29;20063;-87
2022/09/03 12:02:56;;;;;;;4.68;0.80;;;22.60;67.20;;;;;;4875139;29;20041;-87
2022/09/03 12:05:37;;;;;;;1.85;1.00;;;22.60;68.70;;;;;;4896814;29;20044;-89
2022/09/03 12:08:22;;;;;;;1.98;0.73;;;22.90;69.00;;;;;;4877762;29;20115;-90
2022/09/03 12:10:58;;;;;;;3.75;0.88;;;23.10;67.40;;;;;;4876189;29;20041;-86
2022/09/03 12:13:26;;;;;;;1.85;0.95;;;22.90;65.90;;;;;;4871818;29;20239;-87
2022/09/03 12:16:18;;;;;;;2.47;0.80;;;23.00;66.00;;;;;;4883797;29;20060;-89
2022/09/03 12:18:51;;;;;;;1.42;0.77;;;23.00;65.30;;;;;;4877047;29;20049;-89
2022/09/03 12:21:19;;;;;;;2.25;0.80;;;23.00;65.40;;;;;;4894426;29;20047;-87
2022/09/03 12:23:49;;;;;;;1.55;0.55;;;22.80;63.60;;;;;;4879620;29;20100;-92
2022/09/03 12:26:23;;;;;;;4.03;0.90;;;22.80;65.90;;;;;;4883886;29;20501;-89
2022/09/03 12:28:54;;;;;;;2.05;1.08;;;22.70;65.90;;;;;;4877723;29;20062;-89
2022/09/03 12:31:24;;;;;;;2.13;0.70;;;22.70;65.10;;;;;;4883441;29;20040;-88
2022/09/03 12:34:00;;;;;;;1.58;0.68;;;22.90;64.90;;;;;;4896826;29;20048;-90
2022/09/03 12:36:42;;;;;;;2.20;0.90;;;23.00;64.30;;;;;;4878315;29;20074;-88
2022/09/03 12:39:20;;;;;;;14.13;1.58;;;23.00;64.10;;;;;;4875891;29;20048;-87
2022/09/03 12:42:15;;;;;;;2.25;1.02;;;23.10;64.30;;;;;;4877353;29;21242;-87
2022/09/03 12:44:43;;;;;;;3.22;0.90;;;23.20;64.90;;;;;;4890328;29;23045;-89
2022/09/03 12:47:20;;;;;;;1.92;0.98;;;23.20;63.80;;;;;;4875901;29;20055;-91
2022/09/03 12:50:16;;;;;;;3.58;0.60;;;23.10;64.90;;;;;;4886702;29;20317;-90
2022/09/03 12:52:55;;;;;;;1.75;0.50;;;22.70;61.80;;;;;;4872645;29;20060;-91
2022/09/03 12:56:00;;;;;;;2.47;0.80;;;22.50;64.20;;;;;;4875210;29;20061;-91
2022/09/03 12:58:54;;;;;;;2.50;0.80;;;22.30;64.40;;;;;;4833670;29;20042;-87
2022/09/03 13:01:31;;;;;;;1.98;0.60;;;22.30;64.70;;;;;;4875097;29;20139;-87
2022/09/03 13:04:15;;;;;;;2.13;0.60;;;22.60;65.80;;;;;;4892260;29;20963;-91
2022/09/03 13:06:55;;;;;;;5.13;0.80;;;22.80;67.20;;;;;;4881556;29;20044;-89
2022/09/03 13:09:25;;;;;;;3.28;0.98;;;22.90;66.60;;;;;;4870877;29;20050;-91
2022/09/03 13:11:54;;;;;;;2.38;0.68;;;23.10;66.60;;;;;;4880266;29;20040;-90
2022/09/03 13:14:22;;;;;;;2.70;1.05;;;23.10;65.30;;;;;;4884218;29;20044;-91
2022/09/03 13:16:58;;;;;;;2.95;0.60;;;23.10;63.70;;;;;;4877603;29;20056;-89
2022/09/03 13:20:03;;;;;;;1.60;0.60;;;23.30;64.40;;;;;;4880188;29;20086;-92
2022/09/03 13:22:47;;;;;;;1.55;0.85;;;23.30;63.90;;;;;;4888259;29;20052;-90
2022/09/03 13:25:25;;;;;;;1.10;0.55;;;23.30;61.70;;;;;;4868157;29;20058;-88
2022/09/03 13:27:55;;;;;;;1.73;0.60;;;23.30;61.40;;;;;;4894381;29;20044;-90
2022/09/03 13:30:46;;;;;;;1.65;0.75;;;23.30;60.60;;;;;;4893113;29;20049;-88
2022/09/03 13:33:32;;;;;;;2.65;0.63;;;23.30;61.60;;;;;;4883936;29;20044;-87
2022/09/03 13:36:12;;;;;;;3.33;0.70;;;23.30;61.40;;;;;;4893714;29;20047;-87
2022/09/03 13:38:50;;;;;;;1.83;0.70;;;23.30;62.50;;;;;;4891153;29;20116;-87
2022/09/03 13:41:37;;;;;;;2.25;0.60;;;23.30;62.20;;;;;;4880808;29;20526;-90
2022/09/03 13:44:34;;;;;;;2.40;0.73;;;23.30;63.20;;;;;;4878727;29;20048;-88
2022/09/03 13:47:10;;;;;;;3.42;0.95;;;23.30;62.80;;;;;;4882008;29;20044;-86
2022/09/03 13:52:47;;;;;;;2.25;1.00;;;23.30;63.20;;;;;;4891607;29;20056;-87
2022/09/03 13:55:24;;;;;;;3.65;1.00;;;23.20;62.70;;;;;;4884838;29;20131;-86
2022/09/03 13:58:17;;;;;;;2.65;0.60;;;23.20;61.50;;;;;;4881875;29;20147;-88
2022/09/03 14:01:05;;;;;;;3.05;0.85;;;23.20;62.10;;;;;;4883635;29;20057;-90
2022/09/03 14:04:00;;;;;;;2.08;0.98;;;23.20;62.40;;;;;;4884566;29;20134;-90
2022/09/03 14:06:54;;;;;;;3.78;1.42;;;23.10;63.30;;;;;;4872223;29;20537;-89
2022/09/03 14:09:47;;;;;;;3.72;1.17;;;23.10;63.10;;;;;;4885741;29;20119;-87
2022/09/03 14:12:22;;;;;;;1.90;0.77;;;23.10;63.10;;;;;;4915565;29;20103;-87
2022/09/03 14:14:59;;;;;;;2.33;1.00;;;23.20;63.40;;;;;;4879288;29;20420;-90
2022/09/03 14:17:41;;;;;;;3.00;1.00;;;23.20;63.60;;;;;;4883991;29;20100;-88
2022/09/03 14:20:26;;;;;;;7.38;0.95;;;23.10;61.60;;;;;;4873854;29;20053;-87
2022/09/03 14:23:27;;;;;;;2.03;0.95;;;23.00;62.60;;;;;;4883807;29;20100;-86
2022/09/03 14:25:55;;;;;;;3.03;1.10;;;22.90;62.50;;;;;;4886565;29;20064;-87
2022/09/03 14:28:25;;;;;;;2.65;1.08;;;23.00;62.00;;;;;;4886498;29;20040;-88
2022/09/03 14:31:28;;;;;;;4.78;0.80;;;23.10;63.80;;;;;;4891906;29;20115;-89
2022/09/03 14:34:04;;;;;;;2.25;0.90;;;23.10;63.80;;;;;;4845968;29;20060;-87
2022/09/03 14:36:49;;;;;;;3.38;0.80;;;23.00;63.60;;;;;;4896972;29;20059;-88
2022/09/03 14:39:40;;;;;;;2.67;0.55;;;23.00;65.10;;;;;;4884533;29;20048;-89
2022/09/03 14:42:28;;;;;;;3.50;0.70;;;23.00;63.50;;;;;;4867380;29;20043;-89
2022/09/03 14:45:17;;;;;;;4.00;0.80;;;23.00;62.10;;;;;;4895288;29;20052;-89
2022/09/03 14:47:56;;;;;;;1.58;0.93;;;22.90;63.70;;;;;;4882155;29;20052;-86
2022/09/03 14:50:32;;;;;;;1.60;1.00;;;22.90;63.40;;;;;;4896215;29;20096;-87
2022/09/03 14:53:37;;;;;;;2.38;0.80;;;22.90;62.90;;;;;;4886223;29;20048;-88
2022/09/03 14:56:27;;;;;;;3.00;1.30;;;22.90;65.10;;;;;;4897450;29;20052;-86
2022/09/03 14:58:54;;;;;;;4.78;1.25;;;22.80;64.30;;;;;;4875699;29;20143;-87
2022/09/03 15:01:32;;;;;;;1.73;0.85;;;22.70;64.40;;;;;;4885304;29;20063;-87
2022/09/03 15:04:11;;;;;;;2.95;0.93;;;22.70;65.50;;;;;;4897543;29;20059;-87
2022/09/03 15:07:01;;;;;;;4.32;1.35;;;22.70;65.50;;;;;;4900097;29;20073;-89
2022/09/03 15:10:03;;;;;;;2.97;0.68;;;22.70;64.50;;;;;;4882769;29;20063;-87
2022/09/03 15:12:39;;;;;;;3.42;0.80;;;22.60;64.70;;;;;;4910083;29;20060;-87
2022/09/03 15:15:17;;;;;;;5.55;0.88;;;22.60;65.10;;;;;;4885810;29;20607;-87
2022/09/03 15:18:08;;;;;;;4.57;1.02;;;22.50;65.20;;;;;;4878702;29;20052;-88
2022/09/03 15:20:51;;;;;;;1.83;1.05;;;22.50;64.90;;;;;;4879373;29;20048;-89
2022/09/03 15:23:58;;;;;;;1.83;0.85;;;22.50;65.70;;;;;;4881288;29;20044;-87
2022/09/03 15:26:50;;;;;;;3.80;1.20;;;22.50;66.70;;;;;;4878470;29;20045;-87
2022/09/03 15:29:47;;;;;;;3.70;0.90;;;22.60;67.10;;;;;;4899167;29;20524;-87
2022/09/03 15:32:55;;;;;;;3.22;1.25;;;22.50;66.20;;;;;;4898569;29;20138;-87
2022/09/03 15:35:48;;;;;;;1.95;1.00;;;22.50;66.70;;;;;;4841379;29;20091;-87
2022/09/03 15:38:30;;;;;;;2.97;1.35;;;22.40;67.20;;;;;;4841778;29;20163;-87
2022/09/03 15:41:01;;;;;;;;;;;22.30;67.30;;;;;;4881708;29;20138;-87
2022/09/03 15:43:31;;;;;;;4.50;1.30;;;22.30;67.30;;;;;;4868877;29;19927;-87
2022/09/03 15:46:45;;;;;;;3.88;1.00;;;22.20;67.90;;;;;;4883040;29;20052;-88
2022/09/03 15:49:42;;;;;;;2.28;0.80;;;22.20;67.90;;;;;;4898148;29;20052;-86
2022/09/03 15:52:23;;;;;;;4.18;1.45;;;22.20;68.20;;;;;;4866687;29;20064;-87
2022/09/03 15:55:10;;;;;;;2.35;1.10;;;22.10;67.70;;;;;;4868818;29;20048;-91
2022/09/03 15:58:07;;;;;;;2.28;0.95;;;22.10;67.90;;;;;;5051741;28;20447;-88
2022/09/03 16:00:46;;;;;;;4.47;1.38;;;22.10;67.80;;;;;;5063967;28;20060;-86
2022/09/03 16:03:18;;;;;;;2.00;1.05;;;22.10;67.60;;;;;;5045682;28;20132;-89
2022/09/03 16:05:56;;;;;;;2.28;0.85;;;22.10;67.70;;;;;;5044028;28;20050;-86
2022/09/03 16:08:28;;;;;;;1.30;0.63;;;22.10;67.40;;;;;;5043922;28;20060;-86